Time;durP1;ratioP1;P1;durP2;ratioP2;P2;SDS_P1;SDS_P2;PMS_P1;PMS_P2;Temp;Humidity;BMP_temperature;BMP_pressure;BME280_temperature;BME280_humidity;BME280_pressure;Samples;Min_cycle;Max_cycle;Signal;HPM_P1;HPM_P2
2022/08/21 00:00:46;;;;;;;51.80;49.13;;;11.90;99.90;;;;;;4179089;28;20200;-69
2022/08/21 00:02:56;;;;;;;30.90;29.30;;;11.80;99.90;;;;;;4196189;28;20191;-70
2022/08/21 00:04:57;;;;;;;64.63;60.97;;;11.70;99.90;;;;;;4196668;28;20211;-68
2022/08/21 00:06:58;;;;;;;47.47;44.90;;;11.70;99.90;;;;;;4196672;28;20180;-68
2022/08/21 00:08:59;;;;;;;59.90;56.70;;;11.70;99.90;;;;;;4196535;28;20207;-67
2022/08/21 00:10:59;;;;;;;44.47;41.73;;;11.60;99.90;;;;;;4196494;28;20556;-68
2022/08/21 00:13:02;;;;;;;77.93;72.77;;;11.60;99.90;;;;;;4195860;28;20179;-69
2022/08/21 00:15:07;;;;;;;206.67;146.00;;;11.50;99.90;;;;;;4196322;28;20183;-68
2022/08/21 00:17:07;;;;;;;35.90;33.77;;;11.50;99.90;;;;;;4196350;28;20188;-68
2022/08/21 00:19:08;;;;;;;102.57;95.43;;;11.50;99.90;;;;;;4196429;28;20179;-68
2022/08/21 00:21:14;;;;;;;100.10;90.13;;;11.50;99.90;;;;;;4196293;28;20183;-68
2022/08/21 00:23:15;;;;;;;81.83;73.97;;;11.50;99.90;;;;;;4177824;28;20196;-68
2022/08/21 00:25:17;;;;;;;65.40;61.23;;;11.60;99.90;;;;;;4196270;28;20666;-68
2022/08/21 00:27:17;;;;;;;97.07;88.53;;;11.60;99.90;;;;;;4195911;28;20277;-68
2022/08/21 00:29:18;;;;;;;45.90;43.43;;;11.70;99.90;;;;;;4196244;28;20215;-68
2022/08/21 00:31:19;;;;;;;112.23;103.13;;;11.70;99.90;;;;;;4196143;28;20233;-68
2022/08/21 00:33:20;;;;;;;79.70;74.67;;;11.60;99.90;;;;;;4195434;28;20186;-68
2022/08/21 00:35:26;;;;;;;124.23;112.53;;;11.70;99.90;;;;;;4196105;28;20183;-68
2022/08/21 00:37:27;;;;;;;133.37;117.33;;;11.60;99.90;;;;;;4196088;28;20229;-68
2022/08/21 00:39:27;;;;;;;34.70;32.87;;;11.60;99.90;;;;;;4196147;28;20937;-68
2022/08/21 00:41:28;;;;;;;57.53;53.17;;;11.60;99.90;;;;;;4178207;28;20203;-68
2022/08/21 00:43:33;;;;;;;45.13;42.60;;;11.60;99.90;;;;;;4195246;28;20621;-68
2022/08/21 00:45:34;;;;;;;80.57;75.73;;;11.50;99.90;;;;;;4195884;28;20206;-68
2022/08/21 00:47:35;;;;;;;139.27;127.20;;;11.50;99.90;;;;;;4195835;28;20283;-68
2022/08/21 00:49:36;;;;;;;62.90;59.63;;;11.50;99.90;;;;;;4195885;28;20215;-68
2022/08/21 00:52:05;;;;;;;140.13;112.13;;;11.50;99.90;;;;;;4195930;28;20184;-67
2022/08/21 00:54:07;;;;;;;18.23;17.20;;;11.50;99.90;;;;;;4192980;28;20218;-68
2022/08/21 00:56:10;;;;;;;28.90;27.40;;;11.40;99.90;;;;;;4195775;28;20266;-68
2022/08/21 00:58:12;;;;;;;46.77;43.70;;;11.30;99.90;;;;;;4195893;28;20735;-68
2022/08/21 01:00:19;;;;;;;47.53;42.93;;;11.30;99.90;;;;;;4195885;28;20183;-67
2022/08/21 01:02:20;;;;;;;27.80;26.30;;;11.30;99.90;;;;;;4195901;28;20187;-68
2022/08/21 01:04:22;;;;;;;26.17;24.57;;;11.30;99.90;;;;;;4195128;28;20692;-68
2022/08/21 01:06:22;;;;;;;47.13;43.70;;;11.30;99.90;;;;;;4195713;28;20218;-68
2022/08/21 01:08:23;;;;;;;58.17;54.77;;;11.30;99.90;;;;;;4195685;28;20207;-68
2022/08/21 01:10:24;;;;;;;67.20;61.17;;;11.30;99.90;;;;;;4177853;28;20283;-68
2022/08/21 01:12:25;;;;;;;109.83;65.83;;;11.40;99.90;;;;;;4195545;28;20191;-68
2022/08/21 01:14:28;;;;;;;31.33;29.53;;;11.40;99.90;;;;;;4194828;28;20196;-68
2022/08/21 01:16:29;;;;;;;27.63;25.90;;;11.30;99.90;;;;;;4195334;28;20206;-68
2022/08/21 01:18:30;;;;;;;45.63;43.13;;;11.30;99.90;;;;;;4195625;28;20184;-69
2022/08/21 01:20:31;;;;;;;112.00;101.87;;;11.30;99.90;;;;;;4195455;28;20211;-68
2022/08/21 01:22:32;;;;;;;31.83;29.93;;;11.30;99.90;;;;;;4195123;28;20248;-68
2022/08/21 01:24:33;;;;;;;45.33;41.37;;;11.20;99.90;;;;;;4194927;28;20667;-68
2022/08/21 01:26:35;;;;;;;29.27;27.63;;;11.20;99.90;;;;;;4195334;28;20191;-68
2022/08/21 01:28:45;;;;;;;23.97;22.57;;;11.10;99.90;;;;;;4195412;28;20222;-68
2022/08/21 01:30:45;;;;;;;47.00;43.10;;;11.10;99.90;;;;;;4195407;28;20261;-68
2022/08/21 01:32:47;;;;;;;23.63;22.23;;;11.10;99.90;;;;;;4194778;28;20180;-67
2022/08/21 01:34:49;;;;;;;29.87;28.07;;;11.00;99.90;;;;;;4195708;28;20210;-68
2022/08/21 01:36:50;;;;;;;17.30;16.40;;;11.00;99.90;;;;;;4195295;28;20187;-68
2022/08/21 01:38:51;;;;;;;18.50;17.43;;;10.90;99.90;;;;;;4194629;28;20569;-67
2022/08/21 01:40:52;;;;;;;35.10;31.83;;;10.90;99.90;;;;;;4177409;28;20837;-69
2022/08/21 01:42:53;;;;;;;19.10;18.07;;;10.80;99.90;;;;;;4194626;28;20180;-67
2022/08/21 01:44:53;;;;;;;23.17;21.87;;;10.70;99.90;;;;;;4195068;28;20207;-68
2022/08/21 01:46:57;;;;;;;17.80;16.83;;;10.70;99.90;;;;;;4195285;28;20191;-68
2022/08/21 01:48:58;;;;;;;26.17;24.27;;;10.60;99.90;;;;;;4195136;28;20261;-68
2022/08/21 01:50:59;;;;;;;9.97;9.23;;;10.70;99.90;;;;;;4195326;28;20679;-68
2022/08/21 01:53:00;;;;;;;19.03;18.03;;;10.70;99.90;;;;;;4194540;28;20245;-68
2022/08/21 01:55:00;;;;;;;30.53;28.53;;;10.80;99.90;;;;;;4195065;28;20207;-68
2022/08/21 01:57:02;;;;;;;32.00;30.27;;;10.80;99.90;;;;;;4195219;28;20837;-67
2022/08/21 01:59:02;;;;;;;55.87;51.83;;;10.90;99.90;;;;;;4195077;28;20280;-68
2022/08/21 02:01:03;;;;;;;47.03;43.43;;;10.80;99.90;;;;;;4195105;28;20679;-68
2022/08/21 02:03:04;;;;;;;47.87;45.10;;;10.80;99.90;;;;;;4194318;28;20187;-70
2022/08/21 02:05:05;;;;;;;23.93;22.47;;;10.80;99.90;;;;;;4195022;28;20198;-70
2022/08/21 02:07:06;;;;;;;31.13;29.03;;;10.70;99.90;;;;;;4195063;28;20179;-70
2022/08/21 02:09:08;;;;;;;26.03;24.43;;;10.70;99.90;;;;;;4195022;28;20207;-69
2022/08/21 02:11:09;;;;;;;19.13;18.07;;;10.70;99.90;;;;;;4194915;28;20182;-69
2022/08/21 02:13:09;;;;;;;15.50;14.57;;;10.70;99.90;;;;;;4194412;28;20742;-68
2022/08/21 02:15:10;;;;;;;18.97;17.67;;;10.70;99.90;;;;;;4194975;28;20188;-69
2022/08/21 02:17:11;;;;;;;25.67;23.90;;;10.70;99.90;;;;;;4195014;28;20183;-69
2022/08/21 02:19:13;;;;;;;12.50;11.57;;;10.80;99.90;;;;;;4195029;28;20195;-70
2022/08/21 02:21:14;;;;;;;47.63;44.27;;;10.80;99.90;;;;;;4177267;28;20195;-69
2022/08/21 02:23:15;;;;;;;25.90;23.93;;;10.80;99.90;;;;;;4194399;28;20184;-70
2022/08/21 02:25:18;;;;;;;50.60;45.80;;;10.90;99.90;;;;;;4195087;28;20187;-69
2022/08/21 02:27:18;;;;;;;46.00;41.37;;;11.00;99.90;;;;;;4194980;28;20194;-69
2022/08/21 02:29:19;;;;;;;23.20;20.67;;;11.00;99.90;;;;;;4195015;28;20218;-69
2022/08/21 02:31:20;;;;;;;32.27;30.30;;;11.00;99.90;;;;;;4194949;28;20266;-70
2022/08/21 02:33:21;;;;;;;311.17;145.73;;;11.00;99.90;;;;;;4194239;28;20222;-69
2022/08/21 02:35:22;;;;;;;31.43;29.63;;;11.00;99.90;;;;;;4195077;28;20561;-70
2022/08/21 02:37:23;;;;;;;18.67;17.33;;;11.00;99.90;;;;;;4194826;28;20809;-70
2022/08/21 02:39:24;;;;;;;16.33;15.27;;;11.00;99.90;;;;;;4194855;28;20191;-70
2022/08/21 02:41:24;;;;;;;40.50;37.53;;;10.80;99.90;;;;;;4194844;28;20677;-70
2022/08/21 02:43:27;;;;;;;20.03;18.73;;;10.70;99.90;;;;;;4188426;28;21028;-69
2022/08/21 02:45:28;;;;;;;42.13;38.67;;;10.70;99.90;;;;;;4193210;28;20210;-70
2022/08/21 02:47:29;;;;;;;53.60;50.17;;;10.80;99.90;;;;;;4194732;28;20191;-69
2022/08/21 02:49:29;;;;;;;11.83;10.13;;;10.80;99.90;;;;;;4194807;28;20241;-69
2022/08/21 02:51:30;;;;;;;8.53;7.83;;;10.80;99.90;;;;;;4197592;28;20256;-69
2022/08/21 02:53:32;;;;;;;9.10;8.50;;;10.80;99.90;;;;;;4179476;28;20908;-69
2022/08/21 02:55:33;;;;;;;13.20;12.30;;;10.80;99.90;;;;;;4180095;28;20216;-69
2022/08/21 02:57:34;;;;;;;10.53;9.63;;;10.60;99.90;;;;;;4197931;28;20268;-70
2022/08/21 02:59:34;;;;;;;16.80;15.43;;;10.60;99.90;;;;;;4197775;28;20835;-70
2022/08/21 03:01:36;;;;;;;8.47;7.77;;;10.60;99.90;;;;;;4196343;28;20222;-70
2022/08/21 03:03:39;;;;;;;23.13;21.53;;;10.60;99.90;;;;;;4196950;28;20214;-69
2022/08/21 03:05:39;;;;;;;17.83;16.03;;;10.70;99.90;;;;;;4197693;28;20195;-69
2022/08/21 03:07:41;;;;;;;36.20;33.73;;;10.80;99.90;;;;;;4197664;28;20183;-70
2022/08/21 03:09:42;;;;;;;6.07;5.47;;;10.70;99.90;;;;;;4197565;28;20240;-70
2022/08/21 03:11:43;;;;;;;17.57;16.47;;;10.60;99.90;;;;;;4197570;28;20640;-69
2022/08/21 03:13:44;;;;;;;7.80;5.27;;;10.50;99.90;;;;;;4197022;28;20199;-70
2022/08/21 03:15:45;;;;;;;8.97;6.47;;;10.40;99.90;;;;;;4197569;28;20205;-69
2022/08/21 03:17:46;;;;;;;19.63;18.40;;;10.30;99.90;;;;;;4177802;28;20267;-69
2022/08/21 03:19:47;;;;;;;8.43;5.17;;;10.40;99.90;;;;;;4197627;28;20195;-70
2022/08/21 03:21:47;;;;;;;11.03;10.33;;;10.30;99.90;;;;;;4197454;28;20187;-70
2022/08/21 03:23:48;;;;;;;8.23;5.43;;;10.40;99.90;;;;;;4196533;28;20203;-69
2022/08/21 03:25:50;;;;;;;11.30;10.30;;;10.30;99.90;;;;;;4197414;28;20647;-69
2022/08/21 03:27:51;;;;;;;9.97;9.03;;;10.30;99.90;;;;;;4179423;28;20224;-69
2022/08/21 03:29:52;;;;;;;6.77;6.17;;;10.30;99.90;;;;;;4197437;28;20901;-69
2022/08/21 03:31:55;;;;;;;13.57;12.27;;;10.30;99.90;;;;;;4197367;28;20260;-69
2022/08/21 03:33:56;;;;;;;7.43;6.93;;;10.20;99.90;;;;;;4196687;28;20272;-69
2022/08/21 03:36:04;;;;;;;6.87;6.27;;;10.20;99.90;;;;;;4179479;28;20593;-69
2022/08/21 03:38:04;;;;;;;11.40;10.40;;;10.20;99.90;;;;;;4197161;28;20220;-70
2022/08/21 03:40:07;;;;;;;22.57;18.00;;;10.20;99.90;;;;;;4197186;28;20751;-69
2022/08/21 03:42:09;;;;;;;8.37;7.03;;;10.30;99.90;;;;;;4179285;28;20196;-70
2022/08/21 03:44:09;;;;;;;12.97;11.90;;;10.30;99.90;;;;;;4196464;28;20275;-68
2022/08/21 03:46:10;;;;;;;10.50;9.37;;;10.30;99.90;;;;;;4197117;28;20272;-69
2022/08/21 03:48:11;;;;;;;12.23;11.43;;;10.40;99.90;;;;;;4197002;28;20218;-70
2022/08/21 03:50:11;;;;;;;6.37;5.07;;;10.30;99.90;;;;;;4179201;28;20191;-69
2022/08/21 03:52:12;;;;;;;17.50;15.67;;;10.30;99.90;;;;;;4196947;28;20183;-69
2022/08/21 03:54:12;;;;;;;19.70;18.30;;;10.20;99.90;;;;;;4196189;28;20207;-68
2022/08/21 03:56:13;;;;;;;10.07;5.90;;;10.30;99.90;;;;;;4196969;28;20663;-69
2022/08/21 03:58:19;;;;;;;25.57;23.60;;;10.40;99.90;;;;;;4196829;28;20647;-69
2022/08/21 04:00:20;;;;;;;27.13;13.20;;;10.30;99.90;;;;;;4196891;28;20685;-69
2022/08/21 04:02:22;;;;;;;7.73;7.20;;;10.30;99.90;;;;;;4196116;28;20533;-68
2022/08/21 04:04:22;;;;;;;9.47;8.50;;;10.30;99.90;;;;;;4196288;28;20263;-69
2022/08/21 04:06:23;;;;;;;8.73;5.47;;;10.30;99.90;;;;;;4179064;28;20195;-68
2022/08/21 04:08:24;;;;;;;14.13;11.53;;;10.30;99.90;;;;;;4196822;28;20235;-69
2022/08/21 04:10:26;;;;;;;4.77;4.13;;;10.30;99.90;;;;;;4178910;28;20191;-69
2022/08/21 04:12:26;;;;;;;12.40;7.87;;;10.30;99.90;;;;;;4196778;28;20600;-69
2022/08/21 04:14:27;;;;;;;6.97;5.37;;;10.30;99.90;;;;;;4195988;28;20309;-69
2022/08/21 04:16:27;;;;;;;12.37;11.53;;;10.20;99.90;;;;;;4178827;28;20213;-69
2022/08/21 04:18:28;;;;;;;8.80;8.00;;;10.20;99.90;;;;;;4196559;28;20225;-69
2022/08/21 04:20:29;;;;;;;6.73;5.20;;;10.30;99.90;;;;;;4196462;28;20194;-69
2022/08/21 04:22:29;;;;;;;12.37;11.13;;;10.30;99.90;;;;;;4196440;28;20199;-69
2022/08/21 04:24:30;;;;;;;7.43;4.83;;;10.30;99.90;;;;;;4195968;28;20301;-69
2022/08/21 04:26:30;;;;;;;9.10;7.90;;;10.30;99.90;;;;;;4196304;28;20556;-69
2022/08/21 04:28:31;;;;;;;16.07;14.53;;;10.30;99.90;;;;;;4196289;28;20207;-69
2022/08/21 04:30:32;;;;;;;15.97;12.83;;;10.30;99.90;;;;;;4196217;28;20257;-68
2022/08/21 04:32:32;;;;;;;7.27;6.50;;;10.30;99.90;;;;;;4196314;28;20187;-69
2022/08/21 04:34:33;;;;;;;11.37;10.37;;;10.40;99.90;;;;;;4195537;28;20299;-69
2022/08/21 04:36:34;;;;;;;8.07;6.10;;;10.30;99.90;;;;;;4196162;28;20191;-68
2022/08/21 04:38:34;;;;;;;5.93;4.80;;;10.20;99.90;;;;;;4196247;28;20278;-69
2022/08/21 04:40:35;;;;;;;7.27;6.20;;;10.20;99.90;;;;;;4196293;28;20190;-69
2022/08/21 04:42:46;;;;;;;9.03;8.13;;;10.20;99.90;;;;;;4196157;28;20253;-68
2022/08/21 04:44:48;;;;;;;14.20;5.90;;;10.10;99.90;;;;;;4195819;28;20214;-68
2022/08/21 04:46:49;;;;;;;6.67;5.70;;;10.10;99.90;;;;;;4178277;28;20199;-69
2022/08/21 04:48:50;;;;;;;18.27;17.10;;;10.20;99.90;;;;;;4196116;28;20203;-69
2022/08/21 04:50:58;;;;;;;10.87;8.90;;;10.30;99.90;;;;;;4196196;28;20276;-69
2022/08/21 04:53:00;;;;;;;11.20;9.47;;;10.30;99.90;;;;;;4195610;28;20171;-68
2022/08/21 04:55:01;;;;;;;8.63;7.70;;;10.40;99.90;;;;;;4196076;28;20203;-69
2022/08/21 04:57:07;;;;;;;9.47;8.63;;;10.40;99.90;;;;;;4195785;28;20717;-70
2022/08/21 04:59:15;;;;;;;11.77;10.70;;;10.50;99.90;;;;;;4186103;28;20187;-69
2022/08/21 05:01:22;;;;;;;15.33;6.07;;;10.60;99.90;;;;;;4194352;28;20655;-69
2022/08/21 05:03:23;;;;;;;15.73;13.83;;;10.60;99.90;;;;;;4195242;28;20186;-69
2022/08/21 05:05:24;;;;;;;7.57;5.73;;;10.70;99.90;;;;;;4195998;28;20575;-68
2022/08/21 05:07:28;;;;;;;10.97;8.87;;;10.60;99.90;;;;;;4195812;28;20811;-69
2022/08/21 05:09:30;;;;;;;9.87;7.57;;;10.60;99.90;;;;;;4195458;28;20278;-69
2022/08/21 05:11:31;;;;;;;7.93;6.47;;;10.60;99.90;;;;;;4195613;28;20232;-69
2022/08/21 05:13:32;;;;;;;12.97;12.10;;;10.60;99.90;;;;;;4194541;28;20257;-70
2022/08/21 05:15:33;;;;;;;12.10;9.93;;;10.60;99.90;;;;;;4195606;28;20182;-69
2022/08/21 05:17:34;;;;;;;16.57;15.40;;;10.60;99.90;;;;;;4177569;28;20222;-69
2022/08/21 05:19:35;;;;;;;12.30;10.83;;;10.70;99.90;;;;;;4195606;28;20194;-69
2022/08/21 05:21:39;;;;;;;13.93;12.47;;;10.70;99.90;;;;;;4195756;28;20744;-68
2022/08/21 05:23:40;;;;;;;10.60;8.60;;;10.70;99.90;;;;;;4195165;28;20211;-69
2022/08/21 05:25:41;;;;;;;11.37;8.17;;;10.70;99.90;;;;;;4195796;28;20675;-69
2022/08/21 05:27:42;;;;;;;12.17;11.03;;;10.70;99.90;;;;;;4195801;28;20187;-69
2022/08/21 05:29:42;;;;;;;30.30;28.00;;;10.80;99.90;;;;;;4195888;28;20176;-69
2022/08/21 05:31:44;;;;;;;9.63;7.20;;;10.90;99.90;;;;;;4195903;28;20291;-69
2022/08/21 05:33:45;;;;;;;82.27;42.23;;;11.00;99.90;;;;;;4195162;28;20204;-69
2022/08/21 05:35:51;;;;;;;22.53;21.13;;;11.10;99.90;;;;;;4195502;28;20192;-69
2022/08/21 05:37:51;;;;;;;30.83;28.43;;;11.10;99.90;;;;;;4177720;28;20185;-68
2022/08/21 05:39:52;;;;;;;20.80;19.40;;;11.20;99.90;;;;;;4195505;28;20182;-69
2022/08/21 05:41:52;;;;;;;15.67;14.20;;;11.30;99.90;;;;;;4195419;28;20636;-69
2022/08/21 05:43:53;;;;;;;9.80;7.43;;;11.30;99.90;;;;;;4194688;28;20672;-69
2022/08/21 05:45:53;;;;;;;25.10;23.37;;;11.40;99.90;;;;;;4177501;28;20173;-68
2022/08/21 05:47:54;;;;;;;30.23;24.27;;;11.40;99.90;;;;;;4195290;28;20607;-68
2022/08/21 05:49:55;;;;;;;71.03;51.57;;;11.50;99.90;;;;;;4177521;28;20195;-69
2022/08/21 05:51:55;;;;;;;28.17;26.23;;;11.70;99.90;;;;;;4195203;28;20224;-69
2022/08/21 05:53:56;;;;;;;34.97;32.67;;;11.70;99.90;;;;;;4194750;28;20252;-69
2022/08/21 05:55:56;;;;;;;23.53;21.93;;;11.80;99.90;;;;;;4195306;28;20735;-68
2022/08/21 05:57:57;;;;;;;45.23;41.83;;;11.90;99.90;;;;;;4177420;28;20199;-69
2022/08/21 05:59:57;;;;;;;28.83;27.27;;;12.00;99.90;;;;;;4195522;28;20806;-69
2022/08/21 06:01:58;;;;;;;59.03;55.40;;;12.20;99.90;;;;;;4195098;28;20222;-68
2022/08/21 06:03:58;;;;;;;65.37;61.77;;;12.20;99.90;;;;;;4194542;28;20225;-69
2022/08/21 06:06:00;;;;;;;60.33;37.30;;;12.40;99.90;;;;;;4195236;28;20180;-68
2022/08/21 06:08:00;;;;;;;82.00;76.10;;;12.40;99.90;;;;;;4195277;28;20238;-68
2022/08/21 06:10:01;;;;;;;43.23;41.00;;;12.50;99.90;;;;;;4195330;28;20175;-69
2022/08/21 06:12:06;;;;;;;64.37;60.93;;;12.70;99.90;;;;;;4195225;28;20191;-69
2022/08/21 06:14:07;;;;;;;79.03;74.00;;;12.90;99.90;;;;;;4194543;28;20277;-69
2022/08/21 06:16:11;;;;;;;55.00;51.77;;;13.00;99.90;;;;;;4178060;28;20192;-69
2022/08/21 06:18:11;;;;;;;123.93;112.27;;;13.40;99.90;;;;;;4195524;28;20192;-69
2022/08/21 06:20:12;;;;;;;133.83;123.23;;;13.50;99.90;;;;;;4195063;28;20219;-68
2022/08/21 06:22:12;;;;;;;162.93;150.83;;;13.60;99.90;;;;;;4195128;28;20224;-69
2022/08/21 06:24:13;;;;;;;206.77;177.83;;;13.70;99.90;;;;;;4194428;28;20702;-68
2022/08/21 06:26:14;;;;;;;173.57;161.13;;;13.80;99.90;;;;;;4197651;28;20194;-69
2022/08/21 06:28:14;;;;;;;227.17;201.20;;;13.90;99.90;;;;;;4198132;28;20734;-69
2022/08/21 06:30:15;;;;;;;198.23;181.43;;;14.00;99.90;;;;;;4198246;28;20263;-69
2022/08/21 06:32:16;;;;;;;139.87;127.87;;;14.10;99.90;;;;;;4180394;28;20180;-69
2022/08/21 06:34:17;;;;;;;361.27;332.60;;;14.30;99.90;;;;;;4197347;28;20559;-69
2022/08/21 06:36:20;;;;;;;155.70;139.23;;;14.40;99.90;;;;;;4198260;28;20187;-69
2022/08/21 06:38:21;;;;;;;218.73;201.77;;;14.40;99.90;;;;;;4197763;28;20186;-69
2022/08/21 06:40:21;;;;;;;124.47;116.93;;;14.40;99.90;;;;;;4206038;28;20612;-68
2022/08/21 06:42:22;;;;;;;146.67;137.93;;;14.50;99.90;;;;;;4206078;28;20273;-69
2022/08/21 06:44:23;;;;;;;505.10;262.90;;;14.60;99.90;;;;;;4205186;28;20305;-69
2022/08/21 06:46:26;;;;;;;324.40;294.97;;;14.70;99.90;;;;;;4204390;28;20819;-69
2022/08/21 06:48:26;;;;;;;223.00;206.57;;;14.80;99.90;;;;;;4206024;28;20202;-69
2022/08/21 06:50:28;;;;;;;262.77;243.87;;;14.70;99.90;;;;;;4205974;28;20365;-69
2022/08/21 06:52:29;;;;;;;832.47;422.77;;;14.80;99.90;;;;;;4188427;28;20683;-68
2022/08/21 06:54:30;;;;;;;473.70;385.27;;;14.80;99.90;;;;;;4205547;28;20211;-69
2022/08/21 06:56:33;;;;;;;289.93;260.97;;;14.90;99.90;;;;;;4187849;28;20187;-69
2022/08/21 06:58:33;;;;;;;228.03;211.03;;;14.90;99.90;;;;;;4213892;28;20194;-68
2022/08/21 07:00:35;;;;;;;383.13;349.50;;;14.90;99.90;;;;;;4208404;28;20219;-69
2022/08/21 07:02:36;;;;;;;344.73;312.73;;;14.90;99.90;;;;;;4205748;28;20198;-69
2022/08/21 07:04:37;;;;;;;772.27;350.97;;;14.80;99.90;;;;;;4205058;28;20731;-68
2022/08/21 07:06:37;;;;;;;310.60;231.73;;;14.60;99.90;;;;;;4205251;28;20182;-69
2022/08/21 07:08:39;;;;;;;311.87;286.33;;;14.50;99.90;;;;;;4205620;28;20219;-68
2022/08/21 07:10:39;;;;;;;618.87;430.47;;;14.40;99.90;;;;;;4205750;28;20180;-69
2022/08/21 07:12:41;;;;;;;463.70;319.73;;;14.40;99.90;;;;;;4187493;28;20188;-69
2022/08/21 07:14:42;;;;;;;281.47;255.30;;;14.40;99.90;;;;;;4200008;28;20304;-69
2022/08/21 07:16:43;;;;;;;177.27;165.23;;;14.30;99.90;;;;;;4197163;28;20546;-69
2022/08/21 07:18:43;;;;;;;284.73;258.47;;;14.40;99.90;;;;;;4197112;28;20221;-69
2022/08/21 07:20:45;;;;;;;199.67;183.20;;;14.40;99.90;;;;;;4197134;28;20700;-69
2022/08/21 07:22:45;;;;;;;368.93;324.13;;;14.30;99.90;;;;;;4196365;28;20195;-68
2022/08/21 07:24:46;;;;;;;182.10;166.70;;;14.30;99.90;;;;;;4196960;28;20203;-69
2022/08/21 07:26:47;;;;;;;730.57;292.53;;;14.30;99.90;;;;;;4197050;28;20210;-69
2022/08/21 07:28:48;;;;;;;238.37;220.97;;;14.50;99.90;;;;;;4196844;28;20207;-69
2022/08/21 07:30:55;;;;;;;1255.97;256.17;;;14.70;99.90;;;;;;4194274;28;20883;-69
2022/08/21 07:32:57;;;;;;;85.63;78.63;;;14.80;99.90;;;;;;4196140;28;20183;-69
2022/08/21 07:34:57;;;;;;;560.67;305.23;;;15.00;99.90;;;;;;4178890;28;20278;-69
2022/08/21 07:36:58;;;;;;;237.33;209.93;;;15.20;99.90;;;;;;4195974;28;20180;-69
2022/08/21 07:38:59;;;;;;;312.00;287.47;;;15.10;99.90;;;;;;4196784;28;20603;-69
2022/08/21 07:41:01;;;;;;;396.90;361.97;;;15.20;99.90;;;;;;4196963;28;20187;-68
2022/08/21 07:43:02;;;;;;;1055.90;488.13;;;15.30;99.90;;;;;;4196182;28;20666;-68
2022/08/21 07:45:03;;;;;;;798.87;290.40;;;15.50;99.90;;;;;;4196592;28;20219;-69
2022/08/21 07:47:04;;;;;;;254.60;234.70;;;15.70;99.90;;;;;;4196588;28;20233;-69
2022/08/21 07:49:05;;;;;;;239.20;220.33;;;16.00;99.90;;;;;;4196481;28;20214;-69
2022/08/21 07:51:12;;;;;;;807.63;159.47;;;16.30;99.30;;;;;;4196601;28;20192;-69
2022/08/21 07:53:14;;;;;;;112.97;67.37;;;16.60;99.40;;;;;;4193773;28;20189;-69
2022/08/21 07:55:17;;;;;;;168.03;157.27;;;17.20;91.60;;;;;;4196753;28;20176;-69
2022/08/21 07:57:17;;;;;;;778.87;212.40;;;17.50;92.90;;;;;;4196771;28;20586;-69
2022/08/21 07:59:18;;;;;;;1473.73;433.77;;;17.90;92.70;;;;;;4196715;28;20186;-69
2022/08/21 08:01:19;;;;;;;511.70;237.97;;;18.20;74.10;;;;;;4196681;28;20212;-68
2022/08/21 08:03:20;;;;;;;1124.13;377.23;;;18.30;85.40;;;;;;4195844;28;20184;-68
2022/08/21 08:05:26;;;;;;;198.67;82.90;;;18.70;79.60;;;;;;4178556;28;20684;-69
2022/08/21 08:07:27;;;;;;;290.80;96.23;;;18.90;76.80;;;;;;4196610;28;20194;-68
2022/08/21 08:09:28;;;;;;;419.93;150.77;;;19.30;80.00;;;;;;4196516;28;20742;-68
2022/08/21 08:11:28;;;;;;;373.50;275.83;;;19.50;69.30;;;;;;4178651;28;20191;-69
2022/08/21 08:13:29;;;;;;;230.57;108.50;;;19.40;80.40;;;;;;4195768;28;20315;-69
2022/08/21 08:15:30;;;;;;;381.13;279.23;;;19.60;69.00;;;;;;4196410;28;20188;-69
2022/08/21 08:17:32;;;;;;;1081.57;480.27;;;19.90;73.70;;;;;;4196382;28;20275;-68
2022/08/21 08:19:32;;;;;;;327.90;83.97;;;20.00;76.50;;;;;;4196488;28;20716;-68
2022/08/21 08:21:33;;;;;;;98.53;66.67;;;20.30;68.90;;;;;;4196405;28;20266;-69
2022/08/21 08:23:35;;;;;;;1009.07;346.80;;;20.40;68.50;;;;;;4195685;28;20684;-69
2022/08/21 08:25:35;;;;;;;159.70;143.43;;;20.80;65.90;;;;;;4178767;28;20589;-69
2022/08/21 08:27:37;;;;;;;62.03;48.27;;;20.60;56.70;;;;;;4196406;28;20183;-69
2022/08/21 08:29:38;;;;;;;887.50;347.83;;;20.10;57.90;;;;;;4196336;28;20668;-69
2022/08/21 08:31:39;;;;;;;211.03;108.53;;;19.80;62.20;;;;;;4178409;28;20191;-68
2022/08/21 08:33:39;;;;;;;768.70;181.13;;;19.70;59.50;;;;;;4194122;28;20199;-68
2022/08/21 08:35:45;;;;;;;187.17;126.50;;;20.00;62.60;;;;;;4178360;28;20180;-69
2022/08/21 08:37:45;;;;;;;99.80;46.17;;;20.20;60.60;;;;;;4196062;28;20184;-69
2022/08/21 08:39:47;;;;;;;479.07;326.97;;;20.10;56.80;;;;;;4196117;28;20378;-69
2022/08/21 08:41:50;;;;;;;133.57;51.30;;;20.10;61.60;;;;;;4178390;28;20279;-69
2022/08/21 08:44:02;;;;;;;101.17;37.87;;;20.10;58.90;;;;;;4177788;28;20290;-67
2022/08/21 08:46:12;;;;;;;138.60;76.50;;;20.00;55.70;;;;;;4178132;28;20250;-67
2022/08/21 08:48:31;;;;;;;82.87;77.07;;;19.90;54.80;;;;;;4195830;28;20203;-67
2022/08/21 08:50:45;;;;;;;35.53;33.20;;;20.10;60.10;;;;;;4169436;28;20195;-69
2022/08/21 08:52:53;;;;;;;26.80;25.17;;;20.40;55.90;;;;;;4177108;28;20192;-69
2022/08/21 08:55:16;;;;;;;52.73;48.97;;;20.40;59.10;;;;;;4178559;28;20199;-69
2022/08/21 08:57:20;;;;;;;18.23;13.57;;;20.80;57.30;;;;;;4195143;28;20160;-70
2022/08/21 08:59:28;;;;;;;607.23;123.43;;;20.60;52.50;;;;;;4194743;28;20194;-70
2022/08/21 09:01:28;;;;;;;196.40;104.77;;;20.80;53.30;;;;;;4188448;28;20192;-69
2022/08/21 09:03:30;;;;;;;305.23;120.20;;;20.50;54.50;;;;;;4194553;28;20208;-69
2022/08/21 09:05:46;;;;;;;105.57;83.63;;;20.50;54.60;;;;;;4204819;28;20195;-69
2022/08/21 09:08:05;;;;;;;248.20;88.00;;;20.80;53.50;;;;;;4185133;28;20615;-69
2022/08/21 09:10:50;;;;;;;332.63;100.67;;;20.80;53.60;;;;;;4177554;28;20196;-68
2022/08/21 09:13:16;;;;;;;67.17;63.17;;;20.90;54.70;;;;;;4172099;28;20208;-68
2022/08/21 09:15:50;;;;;;;1187.17;409.40;;;21.30;51.70;;;;;;4194994;28;20627;-68
2022/08/21 09:18:21;;;;;;;153.57;55.00;;;21.20;50.60;;;;;;4195289;28;20183;-68
2022/08/21 09:20:52;;;;;;;79.23;52.73;;;21.70;50.70;;;;;;4195126;28;20614;-69
2022/08/21 09:23:47;;;;;;;56.10;37.33;;;21.90;50.40;;;;;;4178649;28;20191;-69
2022/08/21 09:26:00;;;;;;;69.60;50.53;;;22.40;50.30;;;;;;4164933;28;20189;-70
2022/08/21 09:28:01;;;;;;;42.83;38.73;;;22.20;48.20;;;;;;4170629;28;20187;-70
2022/08/21 09:30:04;;;;;;;38.00;36.03;;;21.90;47.70;;;;;;4195148;28;20194;-70
2022/08/21 09:32:21;;;;;;;372.07;270.03;;;21.70;48.00;;;;;;4188134;28;20743;-69
2022/08/21 09:34:31;;;;;;;222.40;203.43;;;21.70;53.60;;;;;;4163652;28;20258;-70
2022/08/21 09:36:43;;;;;;;426.80;382.63;;;21.60;54.40;;;;;;4191743;28;20182;-70
2022/08/21 09:38:54;;;;;;;44.17;39.83;;;21.60;53.90;;;;;;4177589;28;20716;-70
2022/08/21 09:41:05;;;;;;;39.53;36.17;;;21.80;49.20;;;;;;4179644;28;20183;-70
2022/08/21 09:43:16;;;;;;;118.00;72.47;;;21.80;47.40;;;;;;4194292;28;20229;-74
2022/08/21 09:45:18;;;;;;;67.80;62.17;;;21.90;48.00;;;;;;4180869;28;20816;-70
2022/08/21 09:47:20;;;;;;;103.53;97.00;;;22.20;46.90;;;;;;4194998;28;20184;-69
2022/08/21 09:49:34;;;;;;;334.23;95.13;;;22.10;48.30;;;;;;4194847;28;20257;-69
2022/08/21 09:51:36;;;;;;;37.57;33.67;;;21.80;48.80;;;;;;4187046;28;20184;-69
2022/08/21 09:53:44;;;;;;;25.63;24.23;;;22.20;47.60;;;;;;4183300;28;20210;-69
2022/08/21 09:58:20;;;;;;;111.77;45.27;;;23.10;44.30;;;;;;4190524;28;20226;-69
2022/08/21 10:00:31;;;;;;;20.07;18.13;;;23.20;43.60;;;;;;4182105;28;20250;-69
2022/08/21 10:02:35;;;;;;;10.37;9.67;;;23.50;41.60;;;;;;4198439;28;20266;-69
2022/08/21 10:04:36;;;;;;;23.57;21.30;;;23.20;42.80;;;;;;4181536;28;20291;-69
2022/08/21 10:06:37;;;;;;;169.60;67.63;;;23.60;41.30;;;;;;4201530;28;20184;-70
2022/08/21 10:08:40;;;;;;;142.13;69.20;;;23.80;41.20;;;;;;4168586;28;20685;-70
2022/08/21 10:10:41;;;;;;;370.90;119.63;;;24.40;40.50;;;;;;4199532;28;20187;-70
2022/08/21 10:12:53;;;;;;;25.30;23.70;;;24.10;39.90;;;;;;4185185;28;20187;-71
2022/08/21 10:15:19;;;;;;;463.43;183.97;;;24.20;40.50;;;;;;4186276;28;20200;-70
2022/08/21 10:17:41;;;;;;;57.17;31.40;;;24.40;38.30;;;;;;4179401;28;20181;-69
2022/08/21 10:20:20;;;;;;;277.07;79.37;;;25.00;36.70;;;;;;4174972;28;20650;-69
2022/08/21 10:22:56;;;;;;;703.33;189.63;;;25.10;37.80;;;;;;4122099;28;20217;-69
2022/08/21 10:25:01;;;;;;;80.07;47.80;;;25.20;38.20;;;;;;4188318;28;20250;-70